createdAt,value
2018-04-30T00:01:00.081Z,16.70
2018-04-30T00:03:26.076Z,17.00
2018-04-30T00:05:52.038Z,16.90
2018-04-30T00:08:18.792Z,16.70
2018-04-30T00:10:46.279Z,16.60
2018-04-30T00:13:12.235Z,16.50
2018-04-30T00:15:38.211Z,16.50
2018-04-30T00:18:04.151Z,16.50
2018-04-30T00:20:30.148Z,16.40
2018-04-30T00:22:56.136Z,16.40
2018-04-30T00:25:22.876Z,16.90
2018-04-30T00:27:48.832Z,16.90
2018-04-30T00:30:15.593Z,16.70
2018-04-30T00:32:41.548Z,16.60
2018-04-30T00:35:07.496Z,16.50
2018-04-30T00:37:33.495Z,16.30
2018-04-30T00:39:59.482Z,16.20
2018-04-30T00:42:25.476Z,16.60
2018-04-30T00:44:51.445Z,16.70
2018-04-30T00:47:17.421Z,16.30
2018-04-30T00:49:43.426Z,16.20
2018-04-30T00:52:09.400Z,16.10
2018-04-30T00:54:48.772Z,15.90
2018-04-30T00:57:15.412Z,15.90
2018-04-30T00:59:41.415Z,15.70
2018-04-30T01:02:07.392Z,15.80
2018-04-30T01:04:33.359Z,16.20
2018-04-30T01:06:59.360Z,16.00
2018-04-30T01:09:25.346Z,15.90
2018-04-30T01:11:51.349Z,15.80
2018-04-30T01:14:17.369Z,15.90
2018-04-30T01:16:44.104Z,15.90
2018-04-30T01:19:10.060Z,15.90
2018-04-30T01:21:36.759Z,16.10
2018-04-30T01:24:02.728Z,16.00
2018-04-30T01:26:28.706Z,16.40
2018-04-30T01:28:54.681Z,16.30
2018-04-30T01:31:20.652Z,16.60
2018-04-30T01:33:47.387Z,16.00
2018-04-30T01:36:13.349Z,16.00
2018-04-30T01:38:39.335Z,16.10
2018-04-30T01:41:05.294Z,16.40
2018-04-30T01:43:31.280Z,16.50
2018-04-30T01:45:57.304Z,16.40
2018-04-30T01:48:23.298Z,16.10
2018-04-30T01:50:49.259Z,16.40
2018-04-30T01:53:16.001Z,16.00
2018-04-30T01:55:42.736Z,15.80
2018-04-30T01:58:08.744Z,15.70
2018-04-30T02:00:34.695Z,15.80
2018-04-30T02:03:00.696Z,15.90
2018-04-30T02:05:26.688Z,15.80
2018-04-30T02:07:52.635Z,15.90
2018-04-30T02:10:19.379Z,15.90
2018-04-30T02:12:45.335Z,15.80
2018-04-30T02:15:12.076Z,15.80
2018-04-30T02:17:38.067Z,15.80
2018-04-30T02:20:04.023Z,15.80
2018-04-30T02:22:30.027Z,15.70
2018-04-30T02:24:55.987Z,15.70
2018-04-30T02:27:21.947Z,15.80
2018-04-30T02:29:47.935Z,16.00
2018-04-30T02:32:13.891Z,15.70
2018-04-30T02:34:39.874Z,15.60
2018-04-30T02:37:06.571Z,15.60
2018-04-30T02:39:32.543Z,15.60
2018-04-30T02:41:58.565Z,15.60
2018-04-30T02:44:24.596Z,15.70
2018-04-30T02:46:50.564Z,15.60
2018-04-30T02:49:17.299Z,15.70
2018-04-30T02:51:43.284Z,15.70
2018-04-30T02:54:09.240Z,15.70
2018-04-30T02:56:35.223Z,15.80
2018-04-30T02:59:01.960Z,16.10
2018-04-30T03:01:27.990Z,16.10
2018-04-30T03:03:54.003Z,16.00
2018-04-30T03:06:19.987Z,16.00
2018-04-30T03:08:46.699Z,15.90
2018-04-30T03:11:12.696Z,15.90
2018-04-30T03:13:39.391Z,15.90
2018-04-30T03:16:05.375Z,15.90
2018-04-30T03:18:32.075Z,16.20
2018-04-30T03:20:58.060Z,16.20
2018-04-30T03:23:24.799Z,16.40
2018-04-30T03:25:50.795Z,16.40
2018-04-30T03:28:16.910Z,16.30
2018-04-30T03:30:42.879Z,16.40
2018-04-30T03:33:08.939Z,16.50
2018-04-30T03:35:34.923Z,16.50
2018-04-30T03:38:00.874Z,16.50
2018-04-30T03:40:26.867Z,16.50
2018-04-30T03:42:53.568Z,16.30
2018-04-30T03:45:19.551Z,16.30
2018-04-30T03:47:45.559Z,16.30
2018-04-30T03:50:11.551Z,16.20
2018-04-30T03:52:38.319Z,16.10
2018-04-30T03:55:04.304Z,16.10
2018-04-30T03:57:30.282Z,16.40
2018-04-30T03:59:56.263Z,16.60
2018-04-30T04:02:34.639Z,16.40
2018-04-30T04:05:13.841Z,16.40
2018-04-30T04:07:39.827Z,16.40
2018-04-30T04:10:05.811Z,16.30
2018-04-30T04:12:31.801Z,16.20
2018-04-30T04:14:57.767Z,16.10
2018-04-30T04:17:23.714Z,16.10
2018-04-30T04:19:49.701Z,16.50
2018-04-30T04:22:16.397Z,16.30
2018-04-30T04:24:42.362Z,16.30
2018-04-30T04:27:08.411Z,16.30
2018-04-30T04:29:34.364Z,16.20
2018-04-30T04:32:00.354Z,16.40
2018-04-30T04:34:26.767Z,16.40
2018-04-30T04:36:52.763Z,16.30
2018-04-30T04:39:18.739Z,16.20
2018-04-30T04:41:44.796Z,16.20
2018-04-30T04:44:11.482Z,16.30
2018-04-30T04:46:38.216Z,16.30
2018-04-30T04:49:04.198Z,16.30
2018-04-30T04:51:30.961Z,16.40
2018-04-30T04:53:57.676Z,16.40
2018-04-30T04:56:23.658Z,16.40
2018-04-30T04:58:49.679Z,16.50
2018-04-30T05:01:16.411Z,16.50
2018-04-30T05:03:42.392Z,16.50
2018-04-30T05:06:08.384Z,16.60
2018-04-30T05:08:34.353Z,16.60
2018-04-30T05:11:00.420Z,16.60
2018-04-30T05:13:26.356Z,16.70
2018-04-30T05:15:52.312Z,16.80
2018-04-30T05:18:18.303Z,16.80
2018-04-30T05:20:44.314Z,16.90
2018-04-30T05:23:11.027Z,16.90
2018-04-30T05:25:37.046Z,16.90
2018-04-30T05:28:03.043Z,17.00
2018-04-30T05:30:29.760Z,17.10
2018-04-30T05:32:55.840Z,17.10
2018-04-30T05:35:22.574Z,17.30
2018-04-30T05:37:48.568Z,17.30
2018-04-30T05:40:14.553Z,17.30
2018-04-30T05:42:40.560Z,17.20
2018-04-30T05:45:06.571Z,17.20
2018-04-30T05:47:32.575Z,17.30
2018-04-30T05:49:59.337Z,17.60
2018-04-30T05:52:26.109Z,17.70
2018-04-30T05:54:52.071Z,17.70
2018-04-30T05:57:18.059Z,17.80
2018-04-30T05:59:44.872Z,18.20
2018-04-30T06:02:10.862Z,18.10
2018-04-30T06:04:37.558Z,18.30
2018-04-30T06:07:03.719Z,18.30
2018-04-30T06:09:29.697Z,18.30
2018-04-30T06:11:55.660Z,18.30
2018-04-30T06:14:22.465Z,18.30
2018-04-30T06:16:48.464Z,18.40
2018-04-30T06:19:14.605Z,18.40
2018-04-30T06:21:40.788Z,18.50
2018-04-30T06:24:06.804Z,18.50
2018-04-30T06:26:33.613Z,18.70
2018-04-30T06:29:00.412Z,18.60
2018-04-30T06:31:26.441Z,18.70
2018-04-30T06:33:52.400Z,18.80
2018-04-30T06:36:18.423Z,18.90
2018-04-30T06:38:44.399Z,19.00
2018-04-30T06:41:10.379Z,19.00
2018-04-30T06:43:36.373Z,19.00
2018-04-30T06:46:02.316Z,19.10
2018-04-30T06:48:28.279Z,19.30
2018-04-30T06:50:54.306Z,19.30
2018-04-30T06:53:20.302Z,19.40
2018-04-30T06:55:46.272Z,19.40
2018-04-30T06:58:12.219Z,19.50
2018-04-30T07:00:38.435Z,19.60
2018-04-30T07:03:04.423Z,19.50
2018-04-30T07:05:30.447Z,19.70
2018-04-30T07:07:56.471Z,19.70
2018-04-30T07:10:22.415Z,19.80
2018-04-30T07:12:48.403Z,19.80
2018-04-30T07:15:14.400Z,19.90
2018-04-30T07:17:40.386Z,19.90
2018-04-30T07:20:06.435Z,20.00
2018-04-30T07:22:32.370Z,20.10
2018-04-30T07:24:58.327Z,20.30
2018-04-30T07:27:24.335Z,20.30
2018-04-30T07:29:50.299Z,20.30
2018-04-30T07:32:16.403Z,20.50
2018-04-30T07:34:42.356Z,20.30
2018-04-30T07:37:08.371Z,20.50
2018-04-30T07:39:34.391Z,20.60
2018-04-30T07:42:01.096Z,20.80
2018-04-30T07:44:27.150Z,20.80
2018-04-30T07:46:53.099Z,20.80
2018-04-30T07:49:19.135Z,20.90
2018-04-30T07:51:45.085Z,20.90
2018-04-30T07:54:11.822Z,21.30
2018-04-30T07:56:46.171Z,21.40
2018-04-30T07:59:12.905Z,21.40
2018-04-30T08:01:38.907Z,21.40
2018-04-30T08:04:04.878Z,21.60
2018-04-30T08:06:30.833Z,21.80
2018-04-30T08:08:57.571Z,22.00
2018-04-30T08:11:23.519Z,22.00
2018-04-30T08:13:50.254Z,21.80
2018-04-30T08:16:16.611Z,21.80
2018-04-30T08:18:42.564Z,21.70
2018-04-30T08:21:09.354Z,21.60
2018-04-30T08:23:35.304Z,21.60
2018-04-30T08:26:01.287Z,21.50
2018-04-30T08:28:27.996Z,21.60
2018-04-30T08:30:54.015Z,21.60
2018-04-30T08:33:19.962Z,21.40
2018-04-30T08:35:45.918Z,21.20
2018-04-30T08:38:11.927Z,21.00
2018-04-30T08:40:37.898Z,21.00
2018-04-30T08:43:03.879Z,20.90
2018-04-30T08:45:29.859Z,20.90
2018-04-30T08:47:55.827Z,21.10
2018-04-30T08:50:22.552Z,21.10
2018-04-30T08:52:48.510Z,21.10
2018-04-30T08:55:15.199Z,21.00
2018-04-30T08:57:41.199Z,20.90
2018-04-30T09:00:07.184Z,20.80
2018-04-30T09:02:33.182Z,20.50
2018-04-30T09:04:59.888Z,20.30
2018-04-30T09:07:25.876Z,20.20
2018-04-30T09:09:52.614Z,20.20
2018-04-30T09:12:18.583Z,20.20
2018-04-30T09:14:44.591Z,20.20
2018-04-30T09:17:11.331Z,20.20
2018-04-30T09:19:37.455Z,20.20
2018-04-30T09:22:03.499Z,20.10
2018-04-30T09:24:29.520Z,19.70
2018-04-30T09:26:55.475Z,19.70
2018-04-30T09:29:21.459Z,19.90
2018-04-30T09:31:48.023Z,19.70
2018-04-30T09:34:13.975Z,19.70
2018-04-30T09:36:39.980Z,20.10
2018-04-30T09:39:05.932Z,20.10
2018-04-30T09:41:31.966Z,20.30
2018-04-30T09:43:57.914Z,19.90
2018-04-30T09:46:23.902Z,19.30
2018-04-30T09:48:50.642Z,19.10
2018-04-30T09:51:16.631Z,19.10
2018-04-30T09:53:42.610Z,19.30
2018-04-30T09:56:08.708Z,19.30
2018-04-30T09:58:34.719Z,19.10
2018-04-30T10:01:00.687Z,19.10
2018-04-30T10:03:26.692Z,18.80
2018-04-30T10:05:52.798Z,18.70
2018-04-30T10:08:18.765Z,18.70
2018-04-30T10:10:44.747Z,18.60
2018-04-30T10:13:10.712Z,18.30
2018-04-30T10:15:37.522Z,18.40
2018-04-30T10:18:03.487Z,18.30
2018-04-30T10:20:29.475Z,18.40
2018-04-30T10:22:55.495Z,18.40
2018-04-30T10:25:22.203Z,18.40
2018-04-30T10:27:48.306Z,18.40
2018-04-30T10:30:14.311Z,18.30
2018-04-30T10:32:41.023Z,18.20
2018-04-30T10:35:07.146Z,18.20
2018-04-30T10:37:33.163Z,18.40
2018-04-30T10:39:59.129Z,18.30
2018-04-30T10:42:25.142Z,18.20
2018-04-30T10:44:51.130Z,18.30
2018-04-30T10:47:17.154Z,18.40
2018-04-30T10:49:43.143Z,18.50
2018-04-30T10:52:09.118Z,18.90
2018-04-30T10:54:35.127Z,19.30
2018-04-30T10:57:01.085Z,19.20
2018-04-30T10:59:27.117Z,19.70
2018-04-30T11:01:53.107Z,19.80
2018-04-30T11:04:19.828Z,19.80
2018-04-30T11:06:45.795Z,19.80
2018-04-30T11:09:12.543Z,19.70
2018-04-30T11:11:38.536Z,19.70
2018-04-30T11:14:04.582Z,19.70
2018-04-30T11:16:30.579Z,19.90
2018-04-30T11:18:56.614Z,19.80
2018-04-30T11:21:22.592Z,19.70
2018-04-30T11:23:48.604Z,19.90
2018-04-30T11:26:14.557Z,19.80
2018-04-30T11:28:40.588Z,19.80
2018-04-30T11:31:06.592Z,19.50
2018-04-30T11:33:33.314Z,19.70
2018-04-30T11:35:59.334Z,19.70
2018-04-30T11:38:25.327Z,19.80
2018-04-30T11:40:51.313Z,20.00
2018-04-30T11:43:17.331Z,20.20
2018-04-30T11:45:43.328Z,20.60
2018-04-30T11:48:09.359Z,20.50
2018-04-30T11:50:35.319Z,20.90
2018-04-30T11:53:01.271Z,21.20
2018-04-30T11:55:27.296Z,21.50
2018-04-30T11:57:53.269Z,21.20
2018-04-30T12:00:19.368Z,21.20
2018-04-30T12:02:45.335Z,21.30
2018-04-30T12:05:11.306Z,21.30
2018-04-30T12:07:38.086Z,21.40
2018-04-30T12:10:04.052Z,21.50
2018-04-30T12:12:30.016Z,21.40
2018-04-30T12:14:56.006Z,21.50
2018-04-30T12:17:21.975Z,21.70
2018-04-30T12:19:47.994Z,22.20
2018-04-30T12:22:13.975Z,22.70
2018-04-30T12:24:40.701Z,23.00
2018-04-30T12:27:06.739Z,23.00
2018-04-30T12:29:32.719Z,23.70
2018-04-30T12:31:58.734Z,24.50
2018-04-30T12:34:25.492Z,24.20
2018-04-30T12:36:51.459Z,24.20
2018-04-30T12:39:17.494Z,24.20
2018-04-30T12:41:43.468Z,23.80
2018-04-30T12:44:09.540Z,23.50
2018-04-30T12:46:35.568Z,23.40
2018-04-30T12:49:01.526Z,25.20
2018-04-30T12:51:27.632Z,25.00
2018-04-30T12:53:53.595Z,25.10
2018-04-30T12:56:20.318Z,24.50
2018-04-30T12:58:47.779Z,24.30
2018-04-30T13:01:13.739Z,24.30
2018-04-30T13:03:39.711Z,23.80
2018-04-30T13:06:05.735Z,23.10
2018-04-30T13:08:31.699Z,23.20
2018-04-30T13:10:57.723Z,23.00
2018-04-30T13:13:23.734Z,22.80
2018-04-30T13:15:50.439Z,22.00
2018-04-30T13:18:16.451Z,21.90
2018-04-30T13:20:42.403Z,22.40
2018-04-30T13:23:08.411Z,23.20
2018-04-30T13:25:35.142Z,23.70
2018-04-30T13:28:01.126Z,23.70
2018-04-30T13:30:27.127Z,22.80
2018-04-30T13:32:53.858Z,22.20
2018-04-30T13:35:19.815Z,22.10
2018-04-30T13:37:46.551Z,22.10
2018-04-30T13:40:12.522Z,22.10
2018-04-30T13:42:39.236Z,22.30
2018-04-30T13:45:05.218Z,22.20
2018-04-30T13:47:31.206Z,24.10
2018-04-30T13:49:57.174Z,24.90
2018-04-30T13:52:23.903Z,22.80
2018-04-30T13:54:49.858Z,22.80
2018-04-30T13:57:16.603Z,22.60
2018-04-30T13:59:42.559Z,22.60
2018-04-30T14:02:09.266Z,23.30
2018-04-30T14:04:36.779Z,23.80
2018-04-30T14:07:03.476Z,24.40
2018-04-30T14:09:29.430Z,24.40
2018-04-30T14:11:55.427Z,25.20
2018-04-30T14:14:21.419Z,25.50
2018-04-30T14:16:47.381Z,23.60
2018-04-30T14:19:13.404Z,22.40
2018-04-30T14:21:40.130Z,24.00
2018-04-30T14:24:06.127Z,24.00
2018-04-30T14:26:32.075Z,25.20
2018-04-30T14:28:58.063Z,24.60
2018-04-30T14:31:25.519Z,27.80
2018-04-30T14:33:51.580Z,27.80
2018-04-30T14:36:17.515Z,27.60
2018-04-30T14:38:44.213Z,27.80
2018-04-30T14:41:10.207Z,27.80
2018-04-30T14:43:36.168Z,28.40
2018-04-30T14:46:02.153Z,28.20
2018-04-30T14:48:28.137Z,26.30
2018-04-30T14:50:54.126Z,26.10
2018-04-30T14:53:20.113Z,25.90
2018-04-30T14:55:46.088Z,25.40
2018-04-30T14:58:12.131Z,25.50
2018-04-30T15:00:38.146Z,26.60
2018-04-30T15:03:04.142Z,25.10
2018-04-30T15:05:30.159Z,25.10
2018-04-30T15:07:56.960Z,23.90
2018-04-30T15:10:22.941Z,23.80
2018-04-30T15:12:55.824Z,23.90
2018-04-30T15:15:21.911Z,24.30
2018-04-30T15:17:47.902Z,23.20
2018-04-30T15:20:13.913Z,23.90
2018-04-30T15:22:40.053Z,24.20
2018-04-30T15:25:06.010Z,23.50
2018-04-30T15:27:32.016Z,22.60
2018-04-30T15:29:57.971Z,22.60
2018-04-30T15:32:24.011Z,22.40
2018-04-30T15:34:49.969Z,23.10
2018-04-30T15:37:22.990Z,22.60
2018-04-30T15:39:49.692Z,22.70
2018-04-30T15:42:15.688Z,22.70
2018-04-30T15:44:42.454Z,22.60
2018-04-30T15:47:08.471Z,22.60
2018-04-30T15:49:35.163Z,22.60
2018-04-30T15:52:01.162Z,22.60
2018-04-30T15:54:27.945Z,22.00
2018-04-30T15:56:53.912Z,21.90
2018-04-30T15:59:19.887Z,22.20
2018-04-30T16:01:46.615Z,22.10
2018-04-30T16:04:12.627Z,22.10
2018-04-30T16:06:38.628Z,21.60
2018-04-30T16:09:04.627Z,21.80
2018-04-30T16:11:30.579Z,22.10
2018-04-30T16:13:57.405Z,21.50
2018-04-30T16:16:23.310Z,21.50
2018-04-30T16:18:49.263Z,21.60
2018-04-30T16:21:15.270Z,21.90
2018-04-30T16:23:41.268Z,21.80
2018-04-30T16:26:08.031Z,21.60
2018-04-30T16:28:34.767Z,21.70
2018-04-30T16:31:01.482Z,21.70
2018-04-30T16:33:27.451Z,21.70
2018-04-30T16:35:53.464Z,21.30
2018-04-30T16:38:19.436Z,21.60
2018-04-30T16:40:45.483Z,21.50
2018-04-30T16:43:11.442Z,21.30
2018-04-30T16:45:37.610Z,20.90
2018-04-30T16:48:03.583Z,20.90
2018-04-30T16:50:30.283Z,21.00
2018-04-30T16:52:56.292Z,21.00
2018-04-30T16:55:23.015Z,20.60
2018-04-30T16:57:48.971Z,20.60
2018-04-30T17:00:15.714Z,20.80
2018-04-30T17:02:41.674Z,20.80
2018-04-30T17:05:08.479Z,21.00
2018-04-30T17:07:34.427Z,21.00
2018-04-30T17:10:00.424Z,20.70
2018-04-30T17:12:26.474Z,20.70
2018-04-30T17:14:52.495Z,20.80
2018-04-30T17:17:18.447Z,20.70
2018-04-30T17:19:44.422Z,20.70
2018-04-30T17:22:11.171Z,20.70
2018-04-30T17:24:37.362Z,20.70
2018-04-30T17:27:03.355Z,20.90
2018-04-30T17:29:29.381Z,21.00
2018-04-30T17:31:55.338Z,20.70
2018-04-30T17:34:22.100Z,20.40
2018-04-30T17:36:48.843Z,20.10
2018-04-30T17:39:14.820Z,20.10
2018-04-30T17:41:40.795Z,20.20
2018-04-30T17:44:06.792Z,20.20
2018-04-30T17:46:32.744Z,20.10
2018-04-30T17:48:58.783Z,20.00
2018-04-30T17:51:24.767Z,19.80
2018-04-30T17:53:50.739Z,19.80
2018-04-30T17:56:16.729Z,19.80
2018-04-30T17:58:42.715Z,19.90
2018-04-30T18:01:08.752Z,19.70
2018-04-30T18:03:34.759Z,19.50
2018-04-30T18:06:01.455Z,19.50
2018-04-30T18:08:27.443Z,19.50
2018-04-30T18:10:54.167Z,19.40
2018-04-30T18:13:20.201Z,19.30
2018-04-30T18:15:46.217Z,19.30
2018-04-30T18:18:12.186Z,19.40
2018-04-30T18:20:39.006Z,19.30
2018-04-30T18:23:04.955Z,19.30
2018-04-30T18:25:30.960Z,19.20
2018-04-30T18:27:56.996Z,19.30
2018-04-30T18:30:22.978Z,19.70
2018-04-30T18:32:49.019Z,19.80
2018-04-30T18:35:15.135Z,19.70
2018-04-30T18:37:41.363Z,19.60
2018-04-30T18:40:07.311Z,19.60
2018-04-30T18:42:33.351Z,19.40
2018-04-30T18:44:59.323Z,19.00
2018-04-30T18:47:25.311Z,18.90
2018-04-30T18:49:51.263Z,18.80
2018-04-30T18:52:17.345Z,18.60
2018-04-30T18:54:43.247Z,18.00
2018-04-30T18:57:09.285Z,17.50
2018-04-30T18:59:35.271Z,17.10
2018-04-30T19:02:01.280Z,16.90
2018-04-30T19:04:28.140Z,17.00
2018-04-30T19:06:54.419Z,17.00
2018-04-30T19:09:20.455Z,16.80
2018-04-30T19:11:46.474Z,16.80
2018-04-30T19:14:12.435Z,16.60
2018-04-30T19:16:38.415Z,16.40
2018-04-30T19:19:04.366Z,16.10
2018-04-30T19:21:31.055Z,15.90
2018-04-30T19:23:57.086Z,15.90
2018-04-30T19:26:23.078Z,15.90
2018-04-30T19:28:49.770Z,15.60
2018-04-30T19:31:15.867Z,15.60
2018-04-30T19:33:41.927Z,15.70
2018-04-30T19:36:07.844Z,15.60
2018-04-30T19:38:33.844Z,15.50
2018-04-30T19:40:59.861Z,15.50
2018-04-30T19:43:25.851Z,15.60
2018-04-30T19:45:51.811Z,15.40
2018-04-30T19:48:18.544Z,15.10
2018-04-30T19:50:45.329Z,15.00
2018-04-30T19:53:11.315Z,15.00
2018-04-30T19:55:37.311Z,15.30
2018-04-30T19:58:03.367Z,15.10
2018-04-30T20:00:29.346Z,15.10
2018-04-30T20:02:55.311Z,15.40
2018-04-30T20:05:21.329Z,15.20
2018-04-30T20:07:48.058Z,14.70
2018-04-30T20:10:14.007Z,14.70
2018-04-30T20:12:40.025Z,14.60
2018-04-30T20:15:05.970Z,14.60
2018-04-30T20:17:31.955Z,14.90
2018-04-30T20:19:58.019Z,15.30
2018-04-30T20:22:24.108Z,14.90
2018-04-30T20:24:50.183Z,14.80
2018-04-30T20:27:16.224Z,14.80
2018-04-30T20:29:42.201Z,15.10
2018-04-30T20:32:08.203Z,15.20
2018-04-30T20:34:34.251Z,14.90
2018-04-30T20:37:00.294Z,15.20
2018-04-30T20:39:26.290Z,15.10
2018-04-30T20:41:52.299Z,15.40
2018-04-30T20:44:19.096Z,14.90
2018-04-30T20:46:45.781Z,14.70
2018-04-30T20:49:11.791Z,14.60
2018-04-30T20:51:37.755Z,14.80
2018-04-30T20:54:03.767Z,15.00
2018-04-30T20:56:29.761Z,14.80
2018-04-30T20:58:56.534Z,14.30
2018-04-30T21:01:22.540Z,14.30
2018-04-30T21:03:49.281Z,14.20
2018-04-30T21:06:15.314Z,14.20
2018-04-30T21:08:53.597Z,14.40
2018-04-30T21:11:19.672Z,14.40
2018-04-30T21:13:45.630Z,14.40
2018-04-30T21:16:12.368Z,14.10
2018-04-30T21:18:38.336Z,14.10
2018-04-30T21:21:05.039Z,14.20
2018-04-30T21:23:31.019Z,14.20
2018-04-30T21:25:57.719Z,14.20
2018-04-30T21:28:23.734Z,14.20
2018-04-30T21:30:49.762Z,14.10
2018-04-30T21:33:15.708Z,14.00
2018-04-30T21:35:41.728Z,13.80
2018-04-30T21:38:07.687Z,13.70
2018-04-30T21:40:33.691Z,13.70
2018-04-30T21:43:00.392Z,14.30
2018-04-30T21:45:26.424Z,14.30
2018-04-30T21:47:52.443Z,14.50
2018-04-30T21:50:18.395Z,14.70
2018-04-30T21:52:44.396Z,14.30
2018-04-30T21:55:11.103Z,14.40
2018-04-30T21:57:37.067Z,14.40
2018-04-30T22:00:03.024Z,14.10
2018-04-30T22:02:29.004Z,13.90
2018-04-30T22:04:54.995Z,13.60
2018-04-30T22:07:20.943Z,13.40
2018-04-30T22:09:46.939Z,13.30
2018-04-30T22:12:12.989Z,13.50
2018-04-30T22:14:38.915Z,13.40
2018-04-30T22:17:04.866Z,13.40
2018-04-30T22:19:31.587Z,13.30
2018-04-30T22:21:58.302Z,13.30
2018-04-30T22:24:24.300Z,13.30
2018-04-30T22:26:50.267Z,13.20
2018-04-30T22:29:16.266Z,13.00
2018-04-30T22:31:42.235Z,12.90
2018-04-30T22:34:08.252Z,12.90
2018-04-30T22:36:34.983Z,13.20
2018-04-30T22:39:01.722Z,13.00
2018-04-30T22:41:27.721Z,13.00
2018-04-30T22:43:53.680Z,13.00
2018-04-30T22:46:19.639Z,12.90
2018-04-30T22:48:45.614Z,12.80
2018-04-30T22:51:11.580Z,13.10
2018-04-30T22:53:37.568Z,13.30
2018-04-30T22:56:03.539Z,13.20
2018-04-30T22:58:29.518Z,13.10
2018-04-30T23:00:55.522Z,13.20
2018-04-30T23:03:21.460Z,13.20
2018-04-30T23:05:47.431Z,13.70
2018-04-30T23:08:13.606Z,13.60
2018-04-30T23:10:39.563Z,13.70
2018-04-30T23:13:05.540Z,13.70
2018-04-30T23:15:32.266Z,14.20
2018-04-30T23:17:58.284Z,14.20
2018-04-30T23:20:24.326Z,13.90
2018-04-30T23:22:50.320Z,13.80
2018-04-30T23:25:17.032Z,13.70
2018-04-30T23:27:43.023Z,13.70
2018-04-30T23:30:09.731Z,14.10
2018-04-30T23:32:35.726Z,14.10
2018-04-30T23:35:01.680Z,14.10
2018-04-30T23:37:27.629Z,13.80
2018-04-30T23:39:53.631Z,13.90
2018-04-30T23:42:19.626Z,13.80
2018-04-30T23:44:45.607Z,13.80
2018-04-30T23:47:11.594Z,13.70
2018-04-30T23:49:37.551Z,13.80
2018-04-30T23:52:03.526Z,13.90
2018-04-30T23:54:29.482Z,14.00
2018-04-30T23:56:55.491Z,14.20
2018-04-30T23:59:21.459Z,14.10
